Time;durP1;ratioP1;P1;durP2;ratioP2;P2;SDS_P1;SDS_P2;PMS_P1;PMS_P2;Temp;Humidity;BMP_temperature;BMP_pressure;BME280_temperature;BME280_humidity;BME280_pressure;Samples;Min_cycle;Max_cycle;Signal;HPM_P1;HPM_P2
2022/02/21 00:04:00;;;;;;;0.32;0.10;;;;;;;8.96;56.14;96301.41;12813571;23;20057;-83
2022/02/21 00:09:22;;;;;;;0.43;0.10;;;;;;;8.94;56.21;96279.75;12800652;23;20017;-84
2022/02/21 00:14:44;;;;;;;0.50;0.10;;;;;;;8.96;56.70;96256.88;12801443;23;20069;-83
2022/02/21 00:20:07;;;;;;;1.45;0.38;;;;;;;9.01;56.20;96239.06;12820970;23;20001;-83
2022/02/21 00:25:28;;;;;;;0.85;0.20;;;;;;;9.03;56.09;96241.94;12800449;23;20021;-84
2022/02/21 00:30:50;;;;;;;2.15;0.40;;;;;;;9.03;56.00;96253.06;12820696;23;20011;-85
2022/02/21 01:14:04;;;;;;;1.20;0.30;;;;;;;9.12;55.26;96166.53;12796997;23;20005;-83
2022/02/21 01:19:26;;;;;;;1.98;0.30;;;;;;;9.17;54.67;96178.59;12736741;23;20009;-83
2022/02/21 01:31:08;;;;;;;1.92;0.20;;;;;;;9.27;54.54;96105.97;12736604;23;20029;-81
2022/02/21 01:55:38;;;;;;;1.00;0.10;;;;;;;9.39;54.21;96014.63;12674192;23;20032;31
2022/02/21 03:17:07;;;;;;;0.77;0.10;;;;;;;9.31;54.17;95886.91;12765090;23;20034;-84
2022/02/21 03:22:29;;;;;;;1.73;0.10;;;;;;;9.33;53.97;95875.84;12736183;23;20056;-83
2022/02/21 03:27:50;;;;;;;0.43;0.00;;;;;;;9.35;54.37;95872.44;12756328;23;20049;-82
2022/02/21 03:33:13;;;;;;;0.45;0.10;;;;;;;9.30;54.68;95840.22;12731677;23;20017;-82
2022/02/21 03:38:34;;;;;;;0.32;0.10;;;;;;;9.26;54.61;95840.75;12711381;23;20006;-83
2022/02/21 03:43:58;;;;;;;0.38;0.00;;;;;;;9.25;54.77;95822.59;12776324;23;20297;-83
2022/02/21 03:49:21;;;;;;;0.70;0.10;;;;;;;9.22;55.15;95829.44;12776187;23;20007;-84
2022/02/21 04:39:01;;;;;;;0.98;0.22;;;;;;;9.00;55.76;95692.88;12746687;23;20025;-81
2022/02/21 04:44:24;;;;;;;1.30;0.20;;;;;;;8.98;56.13;95722.69;12818786;23;20044;-81
2022/02/21 04:49:46;;;;;;;0.98;0.25;;;;;;;8.96;56.09;95673.22;12798157;23;20005;-80
2022/02/21 04:55:11;;;;;;;1.30;0.30;;;;;;;8.93;55.59;95638.31;12819054;23;20023;-80
2022/02/21 05:00:33;;;;;;;2.47;0.20;;;;;;;8.93;55.99;95632.03;12818903;23;20017;-81
2022/02/21 05:05:55;;;;;;;1.38;0.20;;;;;;;8.92;56.07;95613.91;12782345;23;20011;-83
2022/02/21 05:11:18;;;;;;;1.92;0.22;;;;;;;8.98;56.07;95628.06;12798175;23;20020;-82
2022/02/21 05:16:40;;;;;;;1.65;0.15;;;;;;;9.03;56.15;95633.16;12799324;23;20032;-82
2022/02/21 05:22:02;;;;;;;1.55;0.20;;;;;;;9.01;55.86;95632.38;12819508;23;20036;-81
2022/02/21 05:27:24;;;;;;;0.93;0.20;;;;;;;9.02;55.88;95634.50;12818607;23;20001;-82
2022/02/21 05:32:46;;;;;;;0.75;0.15;;;;;;;9.04;56.09;95670.75;12797965;23;20025;-82
2022/02/21 05:38:08;;;;;;;0.70;0.10;;;;;;;9.01;56.08;95688.03;12813769;23;20008;-82
2022/02/21 05:43:31;;;;;;;1.20;0.20;;;;;;;9.11;56.46;95714.19;12797267;23;20044;-80
2022/02/21 05:48:57;;;;;;;4.10;0.20;;;;;;;9.28;56.16;95759.41;12837822;23;20068;-82
2022/02/21 06:06:58;;;;;;;2.75;0.57;;;;;;;7.93;57.05;95886.25;12709856;23;19908;-83
2022/02/21 06:12:21;;;;;;;1.25;0.08;;;;;;;7.31;58.61;95909.56;12716886;23;19998;-82
2022/02/21 06:17:48;;;;;;;1.10;0.10;;;;;;;7.04;59.51;95915.84;12676542;23;20018;-83
2022/02/21 06:23:18;;;;;;;0.82;0.10;;;;;;;6.94;60.27;95913.25;12655841;23;20022;-81
2022/02/21 06:28:46;;;;;;;0.40;0.10;;;;;;;6.86;60.69;95926.72;12678081;23;20005;-82
2022/02/21 06:34:08;;;;;;;0.57;0.10;;;;;;;6.78;60.84;95946.44;12654421;23;20025;-81
2022/02/21 06:39:32;;;;;;;1.23;0.10;;;;;;;6.79;60.58;95944.38;12654611;23;20041;-82
2022/02/21 06:44:54;;;;;;;0.63;0.17;;;;;;;6.82;61.22;95977.13;12675396;23;20013;-82
2022/02/21 06:50:17;;;;;;;0.77;0.10;;;;;;;6.84;60.83;95982.06;12654976;23;20006;-82
2022/02/21 06:55:39;;;;;;;0.63;0.10;;;;;;;6.84;60.97;95995.94;12674845;23;20065;-84
2022/02/21 07:01:01;;;;;;;1.02;0.20;;;;;;;6.94;61.25;96029.03;12715555;23;20009;-84
2022/02/21 07:06:23;;;;;;;1.23;0.13;;;;;;;7.00;61.55;96013.44;12669883;23;20026;-83
2022/02/21 07:11:45;;;;;;;0.90;0.13;;;;;;;7.14;60.53;96008.66;12675240;23;20018;-84
2022/02/21 07:17:08;;;;;;;0.50;0.10;;;;;;;7.29;60.35;96006.63;12712419;23;20006;-83
2022/02/21 07:22:34;;;;;;;0.45;0.13;;;;;;;7.27;59.91;96000.97;12670456;23;20017;-82
2022/02/21 07:28:00;;;;;;;0.60;0.10;;;;;;;7.46;59.70;95986.69;12652570;23;20032;-84
2022/02/21 07:33:28;;;;;;;0.65;0.10;;;;;;;8.56;57.77;95978.16;12677357;23;20012;-84
2022/02/21 07:38:51;;;;;;;2.05;0.20;;;;;;;10.49;54.93;96003.25;12673280;23;20029;-84
2022/02/21 07:44:22;;;;;;;3.78;0.20;;;;;;;9.86;53.93;96042.47;12677608;23;20021;-85
2022/02/21 07:49:46;;;;;;;1.40;0.20;;;;;;;11.42;51.48;96056.38;12657000;23;20021;-81
2022/02/21 07:55:07;;;;;;;0.35;0.10;;;;;;;11.54;49.87;96066.56;12645036;23;20460;-82
2022/02/21 08:00:28;;;;;;;0.98;0.10;;;;;;;12.20;48.24;96093.44;12648495;23;20021;-80
2022/02/21 08:05:49;;;;;;;0.65;0.10;;;;;;;15.43;44.05;96064.69;12587531;23;20446;-80
2022/02/21 08:11:10;;;;;;;1.00;0.20;;;;;;;19.11;38.33;96075.91;12600572;23;20065;-82
2022/02/21 08:16:31;;;;;;;0.65;0.20;;;;;;;19.75;32.71;96087.63;12579136;23;20026;-83
2022/02/21 08:21:52;;;;;;;0.80;0.20;;;;;;;15.52;34.82;96085.97;12581385;23;20023;-80
2022/02/21 08:27:13;;;;;;;2.35;0.20;;;;;;;12.20;37.45;96118.59;12584652;23;20018;-79
2022/02/21 08:32:34;;;;;;;1.20;0.30;;;;;;;11.26;39.93;96125.59;12583697;23;20015;-79
2022/02/21 08:37:56;;;;;;;2.83;0.57;;;;;;;13.19;37.27;96142.91;12601112;23;20020;-81
2022/02/21 08:43:28;;;;;;;1.42;0.20;;;;;;;12.73;35.46;96128.78;12616311;23;20018;-80
2022/02/21 08:48:49;;;;;;;2.67;0.30;;;;;;;10.55;37.49;96123.47;12601660;23;20015;-81
2022/02/21 08:54:10;;;;;;;3.67;0.60;;;;;;;10.31;38.60;96130.78;12619025;23;20080;-81
2022/02/21 08:59:32;;;;;;;2.72;0.52;;;;;;;12.27;36.81;96158.69;12630939;23;20077;-81
2022/02/21 09:04:53;;;;;;;1.10;0.32;;;;;;;12.09;35.67;96150.38;12654039;23;20058;-81
2022/02/21 09:10:14;;;;;;;2.53;0.70;;;;;;;11.05;36.48;96171.53;12666714;23;20018;-80
2022/02/21 09:15:35;;;;;;;2.92;0.70;;;;;;;20.30;27.93;96153.75;12680904;23;20376;-81
2022/02/21 09:20:56;;;;;;;1.90;0.60;;;;;;;23.24;23.64;96193.97;12637266;23;20022;-84
2022/02/21 09:26:17;;;;;;;1.98;0.50;;;;;;;17.81;25.33;96229.03;12657617;23;20025;-80
2022/02/21 09:31:39;;;;;;;1.92;0.40;;;;;;;14.17;28.67;96238.41;12701413;23;20021;-81
2022/02/21 09:37:00;;;;;;;1.65;0.20;;;;;;;12.89;31.03;96223.81;12679617;23;20021;-81
2022/02/21 09:42:22;;;;;;;1.88;0.35;;;;;;;14.63;30.88;96224.28;12687383;23;20445;-83
2022/02/21 09:47:43;;;;;;;2.22;0.50;;;;;;;16.79;30.12;96242.09;12658461;23;20052;-82
2022/02/21 09:53:28;;;;;;;4.18;0.47;;;;;;;15.57;27.84;96250.63;12666835;23;20014;-81
2022/02/21 09:58:54;;;;;;;2.88;0.40;;;;;;;14.35;29.20;96272.63;12638971;23;20018;-85
2022/02/21 10:04:23;;;;;;;2.85;0.45;;;;;;;17.25;31.56;96297.88;12658431;23;20504;-81
2022/02/21 10:09:45;;;;;;;2.58;0.30;;;;;;;19.95;25.01;96331.25;12638249;23;20013;-81
2022/02/21 10:15:12;;;;;;;;;;;;;;;21.60;20.79;96355.59;12639199;23;20025;-81
2022/02/21 10:20:33;;;;;;;2.88;0.30;;;;;;;23.29;19.99;96344.09;12637894;23;19921;-81
2022/02/21 10:26:04;;;;;;;1.83;0.40;;;;;;;27.42;16.05;96349.03;12657140;23;20069;-81
2022/02/21 10:31:28;;;;;;;2.20;0.50;;;;;;;29.79;13.90;96376.09;12637510;23;20014;-81
2022/02/21 10:36:49;;;;;;;3.55;0.40;;;;;;;29.18;13.38;96355.53;12636487;23;20014;-81
2022/02/21 10:42:13;;;;;;;1.95;0.40;;;;;;;29.49;11.37;96363.31;12637370;23;20026;-81
2022/02/21 10:47:34;;;;;;;;;;;;;;;30.64;11.24;96367.66;12657915;23;20029;-82
2022/02/21 10:52:55;;;;;;;1.75;0.50;;;;;;;30.76;11.14;96378.06;12656635;23;19924;-80
2022/02/21 10:58:22;;;;;;;2.35;0.50;;;;;;;29.92;9.93;96365.63;12636092;23;20017;-80
2022/02/21 11:03:47;;;;;;;1.98;0.57;;;;;;;23.30;13.44;96356.88;12636756;23;20145;-80
2022/02/21 11:09:08;;;;;;;1.00;0.30;;;;;;;20.85;16.07;96367.34;12616840;23;20378;-79
2022/02/21 11:14:29;;;;;;;2.00;0.50;;;;;;;18.82;18.86;96377.41;12636566;23;20021;-82
2022/02/21 11:19:50;;;;;;;2.23;0.60;;;;;;;16.75;21.95;96359.59;12636544;23;20374;-80
2022/02/21 11:25:29;;;;;;;1.10;0.30;;;;;;;15.25;24.90;96360.16;12637106;23;20013;-78
2022/02/21 11:30:52;;;;;;;4.25;0.60;;;;;;;14.96;26.00;96392.38;12637915;23;20022;-79
2022/02/21 11:36:13;;;;;;;2.33;0.38;;;;;;;14.46;26.50;96389.47;12618638;23;20031;-79
2022/02/21 11:41:36;;;;;;;;;;;;;;;14.25;27.47;96376.16;12658292;23;20332;-78
2022/02/21 11:47:10;;;;;;;3.08;0.68;;;;;;;13.96;27.20;96377.34;12638394;23;19948;-79
2022/02/21 11:52:36;;;;;;;;;;;;;;;13.67;26.63;96395.31;12637328;23;20053;-77
2022/02/21 11:57:57;;;;;;;5.10;0.73;;;;;;;12.92;27.18;96401.03;12655536;23;19928;-75
2022/02/21 12:03:18;;;;;;;2.78;0.47;;;;;;;12.80;27.81;96390.81;12628130;23;20437;-76
2022/02/21 12:08:45;;;;;;;2.78;0.40;;;;;;;13.12;26.85;96374.50;12675541;23;20014;-76
2022/02/21 12:14:10;;;;;;;3.30;0.63;;;;;;;12.84;26.84;96393.06;12636182;23;20441;-76
2022/02/21 12:19:32;;;;;;;2.78;0.50;;;;;;;12.00;27.00;96372.34;12676078;23;20324;-76
2022/02/21 12:25:10;;;;;;;3.13;0.50;;;;;;;11.83;28.99;96364.66;12638015;23;20073;-77
2022/02/21 12:30:36;;;;;;;5.00;0.82;;;;;;;12.30;29.56;96373.56;12658907;23;20433;-77
2022/02/21 12:36:05;;;;;;;3.90;0.80;;;;;;;12.99;28.46;96383.81;12637300;23;20380;-78
2022/02/21 12:41:34;;;;;;;5.93;0.85;;;;;;;12.47;28.85;96377.69;12636003;23;20340;-78
2022/02/21 12:47:05;;;;;;;3.53;1.00;;;;;;;12.55;28.98;96361.22;12655947;23;20504;-78
2022/02/21 12:52:26;;;;;;;3.10;0.70;;;;;;;12.26;29.17;96344.72;12640616;23;20013;-78
2022/02/21 12:57:50;;;;;;;5.28;0.82;;;;;;;12.10;29.20;96325.22;12659607;23;20020;-78
2022/02/21 13:03:21;;;;;;;4.72;0.80;;;;;;;12.07;29.62;96334.88;12631506;23;20087;-78
2022/02/21 13:08:42;;;;;;;3.25;0.70;;;;;;;12.58;29.21;96334.72;12618413;23;20072;-77
2022/02/21 13:14:09;;;;;;;4.07;1.02;;;;;;;12.34;29.34;96286.25;12658833;23;20013;-76
2022/02/21 13:19:33;;;;;;;6.00;1.05;;;;;;;11.96;30.34;96333.03;12639699;23;20026;-78
2022/02/21 13:24:59;;;;;;;5.15;1.10;;;;;;;11.61;31.09;96336.50;12678856;23;20377;-78
2022/02/21 13:30:22;;;;;;;4.20;0.85;;;;;;;11.40;31.18;96309.81;12639754;23;20018;-77
2022/02/21 13:35:58;;;;;;;3.42;0.75;;;;;;;11.16;31.95;96310.22;12659985;23;20496;-76
2022/02/21 13:41:19;;;;;;;4.28;1.13;;;;;;;11.12;31.65;96314.94;12639022;23;20018;-77
2022/02/21 13:46:42;;;;;;;5.22;0.85;;;;;;;11.28;32.14;96295.31;12659606;23;20025;-77
2022/02/21 13:52:04;;;;;;;6.82;1.10;;;;;;;11.05;31.79;96304.84;12619346;23;20073;-76
2022/02/21 13:57:27;;;;;;;5.22;0.90;;;;;;;11.02;32.28;96284.50;12660005;23;20033;-76
2022/02/21 14:02:55;;;;;;;5.40;1.10;;;;;;;11.14;32.64;96285.00;12653022;23;20087;-76
2022/02/21 14:08:15;;;;;;;5.70;1.00;;;;;;;11.20;32.26;96273.38;12638838;23;20060;-76
2022/02/21 14:13:56;;;;;;;6.95;0.77;;;;;;;11.15;30.99;96260.59;12647681;23;20029;-76
2022/02/21 14:19:20;;;;;;;4.75;0.70;;;;;;;10.73;30.95;96253.94;12659133;23;20092;-76
2022/02/21 14:24:51;;;;;;;5.13;0.60;;;;;;;10.79;31.09;96251.41;12640684;23;20337;-75
2022/02/21 14:30:12;;;;;;;5.40;0.90;;;;;;;10.67;30.89;96253.66;12658704;23;20069;-77
2022/02/21 14:35:34;;;;;;;3.78;0.93;;;;;;;10.73;30.92;96237.19;12659585;23;20468;-76
2022/02/21 14:40:55;;;;;;;5.00;0.82;;;;;;;10.47;31.40;96250.72;12618611;23;20018;-76
2022/02/21 14:46:17;;;;;;;4.13;0.82;;;;;;;10.49;31.65;96226.41;12638423;23;20325;-77
2022/02/21 14:51:37;;;;;;;2.85;0.60;;;;;;;10.16;31.82;96227.03;12638312;23;20018;-78
2022/02/21 14:57:00;;;;;;;6.07;0.32;;;;;;;9.89;31.87;96216.03;12658402;23;20018;-78
2022/02/21 15:02:22;;;;;;;1.85;0.45;;;;;;;9.84;31.85;96239.50;12674206;23;20021;-78
2022/02/21 15:07:43;;;;;;;2.85;0.63;;;;;;;9.80;31.37;96228.16;12659804;23;20020;-78
2022/02/21 15:13:04;;;;;;;1.92;0.52;;;;;;;9.68;31.43;96239.47;12614953;23;20014;-78
2022/02/21 15:18:25;;;;;;;1.70;0.30;;;;;;;9.33;31.43;96229.47;12637837;23;20021;-78
2022/02/21 15:23:46;;;;;;;2.35;0.30;;;;;;;9.07;31.82;96203.16;12657482;23;20076;-77
2022/02/21 15:29:07;;;;;;;3.38;0.50;;;;;;;9.00;31.87;96199.38;12657780;23;20327;-77
2022/02/21 15:34:28;;;;;;;2.47;0.40;;;;;;;9.03;32.53;96202.97;12678878;23;20022;-77
2022/02/21 15:39:50;;;;;;;2.67;0.50;;;;;;;8.96;32.45;96198.44;12637010;23;20014;-77
2022/02/21 15:45:11;;;;;;;2.38;0.40;;;;;;;8.71;32.98;96216.72;12657381;23;20014;-77
2022/02/21 15:50:32;;;;;;;2.15;0.20;;;;;;;8.48;32.61;96191.91;12650097;23;20085;-77
2022/02/21 15:55:52;;;;;;;1.90;0.30;;;;;;;8.19;32.88;96195.25;12657594;23;20014;-78
2022/02/21 16:01:14;;;;;;;1.42;0.30;;;;;;;7.92;33.23;96187.63;12678983;23;20022;-78
2022/02/21 16:06:35;;;;;;;2.63;0.30;;;;;;;7.63;33.54;96171.53;12637234;23;20463;-77
2022/02/21 16:11:56;;;;;;;1.80;0.30;;;;;;;7.43;34.14;96160.03;12676804;23;20021;-77
2022/02/21 16:17:17;;;;;;;1.77;0.35;;;;;;;7.32;34.55;96135.81;12635783;23;20018;-78
2022/02/21 16:22:38;;;;;;;1.88;0.40;;;;;;;7.24;34.70;96161.13;12644042;23;20022;-80
2022/02/21 16:27:59;;;;;;;2.25;0.70;;;;;;;7.14;35.21;96139.06;12619010;23;20089;-79
2022/02/21 16:33:20;;;;;;;2.50;0.63;;;;;;;7.05;35.55;96144.78;12660622;23;20017;-79
2022/02/21 16:38:41;;;;;;;1.85;0.38;;;;;;;6.99;35.48;96145.16;12639444;23;20437;-79
2022/02/21 16:44:03;;;;;;;5.35;0.50;;;;;;;6.95;35.66;96117.22;12660407;23;20017;-78
2022/02/21 16:49:25;;;;;;;1.88;0.50;;;;;;;6.86;36.59;96126.41;12659574;23;20095;-78
2022/02/21 16:54:46;;;;;;;3.08;0.57;;;;;;;6.82;36.86;96137.28;12639858;23;20025;-78
2022/02/21 17:00:16;;;;;;;3.42;1.23;;;;;;;6.82;37.15;96129.66;12639963;23;20014;-79
2022/02/21 17:05:37;;;;;;;2.75;0.70;;;;;;;6.74;37.19;96140.31;12625084;23;20068;-78
2022/02/21 17:10:57;;;;;;;3.15;0.70;;;;;;;6.75;38.28;96111.25;12638391;23;20018;-78
2022/02/21 17:16:18;;;;;;;2.45;0.68;;;;;;;6.82;38.38;96124.13;12639285;23;20022;-79
2022/02/21 17:21:40;;;;;;;2.55;0.90;;;;;;;6.73;38.75;96127.78;12658442;23;20018;-79
2022/02/21 17:27:01;;;;;;;3.05;1.00;;;;;;;6.73;39.38;96122.22;12661263;23;20018;-77
2022/02/21 17:32:21;;;;;;;3.13;0.68;;;;;;;6.71;40.17;96110.31;12672016;23;20022;-77
2022/02/21 17:37:42;;;;;;;5.03;1.10;;;;;;;6.72;40.56;96103.44;12643355;23;20018;-80
2022/02/21 17:43:05;;;;;;;3.50;0.90;;;;;;;6.65;41.01;96107.19;12620569;23;20315;-77
2022/02/21 17:48:26;;;;;;;3.45;0.95;;;;;;;6.52;41.59;96103.72;12658715;23;20013;-77
2022/02/21 17:53:46;;;;;;;4.60;1.10;;;;;;;6.47;42.46;96093.03;12640320;23;20028;-77
2022/02/21 17:59:07;;;;;;;6.32;0.98;;;;;;;6.42;43.01;96122.56;12679924;23;20014;-77
2022/02/21 18:04:28;;;;;;;3.90;0.82;;;;;;;6.40;43.64;96089.19;12625470;23;20081;-78
2022/02/21 18:09:50;;;;;;;6.85;1.23;;;;;;;6.41;44.40;96093.41;12638353;23;20028;-77
2022/02/21 18:15:11;;;;;;;2.65;0.55;;;;;;;6.37;44.49;96120.16;12657698;23;20014;-77
2022/02/21 18:20:32;;;;;;;2.80;0.70;;;;;;;6.35;44.61;96139.44;12637509;23;20042;-77
2022/02/21 18:25:54;;;;;;;3.67;1.02;;;;;;;6.32;45.20;96119.94;12617960;23;20512;-76
2022/02/21 18:31:15;;;;;;;4.22;0.70;;;;;;;6.35;45.42;96122.81;12657914;23;20018;-77
2022/02/21 18:36:37;;;;;;;2.53;0.73;;;;;;;6.43;46.15;96112.91;12657152;23;20034;-77
2022/02/21 18:41:58;;;;;;;4.80;1.23;;;;;;;6.58;45.93;96117.94;12637113;23;20101;-77
2022/02/21 18:47:18;;;;;;;3.53;0.80;;;;;;;6.61;46.23;96116.00;12636586;23;20089;-77
2022/02/21 18:52:39;;;;;;;3.38;0.80;;;;;;;6.68;46.60;96133.72;12636294;23;20141;-75
2022/02/21 18:58:22;;;;;;;3.25;0.60;;;;;;;6.58;46.68;96112.41;12624206;23;20044;-76
2022/02/21 19:03:46;;;;;;;2.88;0.75;;;;;;;6.62;47.42;96116.72;12630426;23;20013;-78
2022/02/21 19:09:10;;;;;;;2.40;0.30;;;;;;;6.60;47.99;96092.38;12617922;23;20018;-77
2022/02/21 19:14:30;;;;;;;0.88;0.30;;;;;;;6.52;47.79;96103.72;12664126;23;20014;-78
2022/02/21 19:19:51;;;;;;;2.08;0.40;;;;;;;6.48;48.83;96111.84;12656871;23;20025;-79
2022/02/21 19:25:13;;;;;;;1.40;0.40;;;;;;;6.48;49.30;96128.47;12639607;23;20022;-79
2022/02/21 19:30:34;;;;;;;1.60;0.40;;;;;;;6.45;50.04;96110.25;12656042;23;20022;-79
2022/02/21 19:35:54;;;;;;;1.67;0.60;;;;;;;6.34;50.30;96124.16;12657923;23;20020;-79
2022/02/21 19:41:17;;;;;;;1.50;0.25;;;;;;;6.25;51.77;96125.72;12626906;23;20464;-79
2022/02/21 19:46:38;;;;;;;1.75;0.32;;;;;;;6.22;52.60;96121.41;12636891;23;20042;-78
2022/02/21 19:51:59;;;;;;;0.98;0.35;;;;;;;6.25;52.14;96134.03;12635485;23;20349;-77
2022/02/21 19:57:20;;;;;;;1.88;0.52;;;;;;;6.32;52.54;96142.09;12656680;23;20014;-79
2022/02/21 20:02:41;;;;;;;1.33;0.30;;;;;;;6.35;53.05;96140.16;12639631;23;20028;-80
2022/02/21 20:08:02;;;;;;;0.75;0.20;;;;;;;6.40;53.04;96152.94;12640702;23;20500;-78
2022/02/21 20:13:24;;;;;;;4.38;0.30;;;;;;;6.25;53.42;96159.69;12651027;23;20014;-78
2022/02/21 20:18:45;;;;;;;1.55;0.30;;;;;;;6.29;53.73;96181.41;12619770;23;20017;-77
2022/02/21 20:24:05;;;;;;;0.63;0.20;;;;;;;6.35;54.11;96212.22;12619947;23;20389;-80
2022/02/21 20:29:28;;;;;;;2.67;0.20;;;;;;;6.40;54.00;96200.06;12645189;23;20021;-79
2022/02/21 20:34:49;;;;;;;1.30;0.20;;;;;;;6.38;55.03;96222.13;12640885;23;20318;-77
2022/02/21 20:40:12;;;;;;;1.15;0.50;;;;;;;6.38;55.77;96202.72;12659273;23;20377;-77
2022/02/21 20:45:33;;;;;;;0.50;0.10;;;;;;;6.34;55.58;96213.53;12659393;23;20022;-78
2022/02/21 20:50:54;;;;;;;0.55;0.13;;;;;;;6.28;56.14;96249.22;12639667;23;20021;-77
2022/02/21 20:56:20;;;;;;;0.60;0.10;;;;;;;6.26;57.09;96249.09;12660468;23;20020;-76
2022/02/21 21:01:41;;;;;;;0.95;0.20;;;;;;;6.21;57.24;96256.44;12659954;23;20048;-76
2022/02/21 21:07:02;;;;;;;0.25;0.10;;;;;;;6.15;57.56;96247.03;12640272;23;20089;-74
2022/02/21 21:12:23;;;;;;;0.80;0.20;;;;;;;6.00;57.62;96278.72;12659726;23;20029;-77
2022/02/21 21:17:45;;;;;;;0.40;0.10;;;;;;;6.05;58.25;96310.88;12596128;23;20021;-77
2022/02/21 21:23:09;;;;;;;0.20;0.10;;;;;;;6.13;58.34;96308.59;12638802;23;20334;-76
2022/02/21 21:28:31;;;;;;;0.30;0.20;;;;;;;6.16;58.47;96312.22;12640240;23;20018;-77
2022/02/21 21:33:53;;;;;;;0.32;0.10;;;;;;;6.13;58.53;96330.75;12639337;23;20025;-76
2022/02/21 21:39:16;;;;;;;0.52;0.20;;;;;;;6.13;58.80;96336.31;12620771;23;20020;-77
2022/02/21 21:44:37;;;;;;;0.68;0.30;;;;;;;6.20;58.36;96357.53;12640581;23;20014;-80
2022/02/21 21:49:59;;;;;;;0.73;0.20;;;;;;;6.24;58.48;96368.84;12644487;23;20018;-80
2022/02/21 21:55:20;;;;;;;0.40;0.10;;;;;;;6.26;58.13;96409.81;12650866;23;20049;-80
2022/02/21 22:00:41;;;;;;;0.55;0.10;;;;;;;6.31;58.33;96433.69;12670991;23;20433;-79
2022/02/21 22:06:02;;;;;;;0.10;0.00;;;;;;;6.38;58.31;96449.41;12630212;23;20022;-81
2022/02/21 22:11:23;;;;;;;0.20;0.10;;;;;;;6.39;58.29;96475.06;12703038;23;20014;-82
2022/02/21 22:16:44;;;;;;;1.20;0.10;;;;;;;6.36;58.20;96499.13;12641627;23;20025;-80
2022/02/21 22:22:05;;;;;;;1.38;0.10;;;;;;;6.40;58.53;96520.84;12697927;23;20049;-83
2022/02/21 22:27:26;;;;;;;0.13;0.03;;;;;;;6.39;58.96;96534.00;12711926;23;20006;-80
2022/02/21 22:32:54;;;;;;;0.20;0.10;;;;;;;6.05;58.64;96542.84;12692289;23;20008;-79
2022/02/21 22:38:42;;;;;;;0.60;0.20;;;;;;;5.68;59.47;96570.84;12633122;23;20028;31
2022/02/21 22:44:11;;;;;;;0.60;0.20;;;;;;;5.45;59.35;96583.19;12629270;23;20082;31
2022/02/21 22:49:34;;;;;;;0.85;0.20;;;;;;;5.41;59.68;96598.81;12515127;23;20224;-81
2022/02/21 23:33:14;;;;;;;1.88;0.30;;;;;;;4.86;59.31;96694.53;12612746;23;20025;31
2022/02/21 23:44:58;;;;;;;1.15;0.20;;;;;;;4.67;59.08;96714.59;12588440;23;20043;-81
